createdAt,value
2019-05-16T00:00:50.132Z,23.30
2019-05-16T00:03:21.030Z,23.40
2019-05-16T00:05:54.621Z,23.40
2019-05-16T00:08:24.661Z,23.40
2019-05-16T00:10:57.950Z,23.40
2019-05-16T00:13:28.313Z,23.40
2019-05-16T00:15:59.255Z,23.40
2019-05-16T00:18:29.954Z,23.40
2019-05-16T00:21:00.931Z,23.40
2019-05-16T00:23:31.973Z,23.30
2019-05-16T00:26:02.901Z,23.40
2019-05-16T00:28:33.618Z,23.30
2019-05-16T00:31:04.400Z,23.40
2019-05-16T00:33:34.994Z,23.40
2019-05-16T00:36:06.911Z,23.40
2019-05-16T00:38:38.350Z,23.30
2019-05-16T00:41:09.337Z,23.30
2019-05-16T00:43:48.855Z,23.30
2019-05-16T00:46:20.200Z,23.30
2019-05-16T00:48:51.155Z,23.30
2019-05-16T00:51:22.054Z,23.30
2019-05-16T00:53:53.134Z,23.30
2019-05-16T00:56:23.969Z,23.30
2019-05-16T00:58:55.085Z,23.30
2019-05-16T01:01:28.167Z,23.30
2019-05-16T01:03:58.646Z,23.30
2019-05-16T01:06:29.531Z,23.40
2019-05-16T01:09:00.512Z,23.40
2019-05-16T01:11:31.139Z,23.30
2019-05-16T01:14:01.984Z,23.30
2019-05-16T01:16:32.739Z,23.30
2019-05-16T01:19:03.604Z,23.30
2019-05-16T01:21:34.366Z,23.30
2019-05-16T01:24:05.154Z,23.30
2019-05-16T01:26:35.966Z,23.30
2019-05-16T01:29:08.256Z,23.30
2019-05-16T01:31:39.542Z,23.30
2019-05-16T01:34:10.349Z,23.30
2019-05-16T01:36:41.153Z,23.30
2019-05-16T01:39:11.905Z,23.30
2019-05-16T01:41:42.671Z,23.30
2019-05-16T01:44:13.499Z,23.30
2019-05-16T01:46:44.345Z,23.30
2019-05-16T01:49:14.941Z,23.30
2019-05-16T01:51:45.577Z,23.30
2019-05-16T01:54:17.964Z,23.30
2019-05-16T01:56:49.021Z,23.20
2019-05-16T01:59:19.744Z,23.30
2019-05-16T02:01:50.642Z,23.30
2019-05-16T02:04:21.630Z,23.30
2019-05-16T02:06:54.937Z,23.30
2019-05-16T02:09:25.067Z,23.30
2019-05-16T02:11:55.884Z,23.30
2019-05-16T02:14:28.291Z,23.30
2019-05-16T02:16:59.184Z,23.30
2019-05-16T02:19:29.906Z,23.30
2019-05-16T02:22:00.811Z,23.30
2019-05-16T02:24:31.494Z,23.30
2019-05-16T02:27:02.323Z,23.30
2019-05-16T02:29:33.213Z,23.30
2019-05-16T02:32:03.918Z,23.20
2019-05-16T02:34:34.706Z,23.20
2019-05-16T02:37:23.071Z,23.20
2019-05-16T02:39:40.845Z,23.20
2019-05-16T02:42:11.915Z,23.20
2019-05-16T02:44:43.214Z,23.20
2019-05-16T02:47:14.159Z,23.20
2019-05-16T02:49:44.952Z,23.20
2019-05-16T02:52:15.858Z,23.20
2019-05-16T02:54:46.680Z,23.20
2019-05-16T02:57:17.486Z,23.20
2019-05-16T02:59:50.963Z,23.20
2019-05-16T03:02:21.039Z,23.20
2019-05-16T03:04:52.053Z,23.20
2019-05-16T03:07:37.631Z,23.20
2019-05-16T03:09:56.147Z,23.20
2019-05-16T03:12:30.643Z,23.20
2019-05-16T03:15:02.407Z,23.20
2019-05-16T03:17:35.984Z,23.20
2019-05-16T03:20:10.551Z,23.20
2019-05-16T03:22:40.999Z,23.20
2019-05-16T03:25:12.159Z,23.20
2019-05-16T03:27:43.237Z,23.20
2019-05-16T03:30:16.398Z,23.20
2019-05-16T03:32:46.655Z,23.20
2019-05-16T03:35:23.650Z,23.20
2019-05-16T03:37:57.002Z,23.20
2019-05-16T03:40:31.447Z,23.20
2019-05-16T03:43:02.549Z,23.10
2019-05-16T03:45:33.403Z,23.20
2019-05-16T03:48:04.214Z,23.10
2019-05-16T03:50:35.061Z,23.10
2019-05-16T03:53:05.945Z,23.10
2019-05-16T03:55:36.778Z,23.10
2019-05-16T03:58:07.692Z,23.10
2019-05-16T04:00:54.099Z,23.10
2019-05-16T04:03:28.458Z,23.20
2019-05-16T04:06:00.838Z,23.10
2019-05-16T04:08:31.160Z,23.10
2019-05-16T04:11:01.851Z,23.10
2019-05-16T04:13:32.973Z,23.10
2019-05-16T04:16:03.529Z,23.10
2019-05-16T04:18:34.456Z,23.10
2019-05-16T04:21:05.188Z,23.10
2019-05-16T04:23:36.014Z,23.10
2019-05-16T04:26:07.005Z,23.10
2019-05-16T04:28:40.956Z,23.10
2019-05-16T04:31:11.095Z,23.10
2019-05-16T04:33:42.135Z,23.10
2019-05-16T04:36:12.805Z,23.10
2019-05-16T04:38:46.631Z,23.10
2019-05-16T04:41:16.207Z,23.10
2019-05-16T04:43:47.021Z,23.10
2019-05-16T04:46:20.942Z,23.10
2019-05-16T04:48:50.758Z,23.00
2019-05-16T04:51:22.257Z,23.10
2019-05-16T04:53:53.092Z,23.10
2019-05-16T04:56:24.076Z,23.00
2019-05-16T04:58:54.828Z,23.10
2019-05-16T05:01:26.149Z,23.10
2019-05-16T05:04:08.792Z,23.10
2019-05-16T05:06:31.339Z,23.10
2019-05-16T05:09:03.630Z,23.10
2019-05-16T05:11:34.788Z,23.10
2019-05-16T05:14:05.678Z,23.10
2019-05-16T05:16:36.431Z,23.00
2019-05-16T05:19:07.049Z,23.10
2019-05-16T05:21:40.675Z,23.00
2019-05-16T05:24:11.026Z,23.00
2019-05-16T05:26:42.122Z,23.00
2019-05-16T05:29:13.043Z,23.10
2019-05-16T05:31:45.738Z,23.10
2019-05-16T05:34:16.685Z,23.20
2019-05-16T05:36:47.453Z,23.30
2019-05-16T05:39:20.024Z,23.30
2019-05-16T05:41:50.845Z,23.50
2019-05-16T05:44:21.477Z,23.60
2019-05-16T05:46:52.374Z,23.60
2019-05-16T05:49:23.221Z,23.60
2019-05-16T05:51:54.298Z,23.60
2019-05-16T05:54:25.019Z,23.50
2019-05-16T05:56:56.064Z,23.50
2019-05-16T05:59:27.149Z,23.40
2019-05-16T06:02:00.581Z,23.40
2019-05-16T06:04:30.653Z,23.40
2019-05-16T06:07:01.528Z,23.40
2019-05-16T06:09:33.293Z,23.30
2019-05-16T06:12:07.389Z,23.30
2019-05-16T06:14:36.945Z,23.30
2019-05-16T06:17:08.002Z,23.30
2019-05-16T06:19:40.257Z,23.20
2019-05-16T06:22:11.228Z,23.10
2019-05-16T06:24:42.341Z,23.00
2019-05-16T06:27:13.203Z,23.00
2019-05-16T06:29:44.387Z,22.90
2019-05-16T06:32:15.503Z,22.90
2019-05-16T06:34:46.316Z,22.90
2019-05-16T06:37:20.482Z,22.90
2019-05-16T06:39:51.337Z,22.90
2019-05-16T06:42:22.630Z,22.90
2019-05-16T06:44:54.169Z,22.80
2019-05-16T06:47:25.435Z,22.80
2019-05-16T06:49:56.978Z,22.80
2019-05-16T06:52:30.176Z,22.80
2019-05-16T06:55:01.247Z,22.80
2019-05-16T06:57:32.404Z,22.80
2019-05-16T07:00:03.851Z,22.80
2019-05-16T07:02:35.008Z,22.80
2019-05-16T07:05:06.180Z,22.80
2019-05-16T07:07:37.190Z,22.80
2019-05-16T07:10:09.795Z,22.80
2019-05-16T07:12:41.505Z,22.80
2019-05-16T07:15:13.179Z,22.80
2019-05-16T07:17:44.129Z,22.80
2019-05-16T07:20:15.083Z,22.80
2019-05-16T07:22:45.817Z,22.80
2019-05-16T07:25:17.001Z,22.80
2019-05-16T07:27:50.750Z,22.80
2019-05-16T07:30:20.872Z,22.80
2019-05-16T07:32:51.734Z,22.80
2019-05-16T07:35:22.469Z,22.80
2019-05-16T07:37:53.377Z,22.80
2019-05-16T07:40:26.891Z,22.70
2019-05-16T07:42:56.993Z,22.70
2019-05-16T07:45:27.941Z,22.70
2019-05-16T07:48:00.118Z,22.70
2019-05-16T07:50:31.298Z,22.70
2019-05-16T07:53:02.041Z,22.70
2019-05-16T07:55:33.032Z,22.70
2019-05-16T07:58:03.897Z,22.80
2019-05-16T08:00:49.872Z,22.80
2019-05-16T08:03:07.189Z,22.80
2019-05-16T08:05:40.967Z,22.80
2019-05-16T08:08:10.687Z,22.80
2019-05-16T08:10:46.344Z,22.80
2019-05-16T08:13:17.470Z,22.80
2019-05-16T08:15:46.713Z,22.80
2019-05-16T08:18:21.297Z,22.80
2019-05-16T08:20:52.811Z,22.80
2019-05-16T08:23:23.615Z,22.80
2019-05-16T08:25:54.471Z,22.80
2019-05-16T08:28:25.273Z,22.80
2019-05-16T08:30:56.158Z,22.80
2019-05-16T08:33:27.063Z,22.80
2019-05-16T08:36:04.807Z,22.80
2019-05-16T08:38:31.146Z,22.80
2019-05-16T08:41:10.897Z,22.80
2019-05-16T08:43:34.614Z,22.80
2019-05-16T08:46:05.363Z,22.80
2019-05-16T08:48:36.325Z,22.80
2019-05-16T08:51:07.084Z,22.70
2019-05-16T08:53:43.005Z,22.80
2019-05-16T08:56:13.033Z,22.80
2019-05-16T08:58:43.029Z,22.80
2019-05-16T09:01:14.928Z,22.80
2019-05-16T09:03:46.462Z,22.80
2019-05-16T09:06:17.214Z,22.80
2019-05-16T09:08:48.059Z,22.80
2019-05-16T09:11:33.991Z,22.80
2019-05-16T09:13:51.453Z,22.80
2019-05-16T09:16:22.747Z,22.80
2019-05-16T09:18:53.617Z,22.80
2019-05-16T09:21:27.135Z,22.80
2019-05-16T09:23:57.797Z,22.80
2019-05-16T09:26:29.016Z,22.80
2019-05-16T09:28:59.810Z,22.80
2019-05-16T09:31:30.710Z,22.80
2019-05-16T09:34:01.819Z,22.70
2019-05-16T09:36:32.488Z,22.70
2019-05-16T09:39:03.508Z,22.80
2019-05-16T09:41:49.812Z,22.80
2019-05-16T09:44:08.722Z,22.80
2019-05-16T09:46:39.433Z,22.80
2019-05-16T09:49:19.328Z,22.80
2019-05-16T09:51:42.863Z,22.80
2019-05-16T09:54:13.534Z,22.80
2019-05-16T09:56:46.460Z,22.80
2019-05-16T09:59:17.425Z,22.80
2019-05-16T10:01:48.298Z,22.80
2019-05-16T10:04:18.760Z,22.80
2019-05-16T10:06:49.573Z,22.80
2019-05-16T10:09:20.050Z,22.80
2019-05-16T10:12:05.531Z,22.80
2019-05-16T10:14:23.052Z,22.80
2019-05-16T10:16:53.814Z,22.80
2019-05-16T10:19:24.591Z,22.80
2019-05-16T10:21:59.974Z,22.80
2019-05-16T10:24:28.052Z,22.80
2019-05-16T10:26:59.017Z,22.80
2019-05-16T10:29:30.116Z,22.80
2019-05-16T10:32:00.988Z,22.80
2019-05-16T10:34:31.694Z,22.80
2019-05-16T10:37:02.583Z,22.70
2019-05-16T10:39:33.627Z,22.80
2019-05-16T10:42:06.667Z,22.80
2019-05-16T10:44:38.376Z,22.80
2019-05-16T10:47:09.815Z,22.70
2019-05-16T10:49:41.926Z,22.70
2019-05-16T10:52:12.922Z,22.70
2019-05-16T10:54:57.261Z,22.80
2019-05-16T10:57:16.448Z,22.80
2019-05-16T11:00:01.903Z,22.80
2019-05-16T11:02:20.153Z,22.80
2019-05-16T11:05:00.210Z,22.80
2019-05-16T11:07:23.503Z,22.80
2019-05-16T11:10:01.424Z,22.80
2019-05-16T11:12:45.220Z,22.80
2019-05-16T11:14:59.682Z,22.80
2019-05-16T11:17:30.429Z,22.80
2019-05-16T11:20:01.320Z,22.80
2019-05-16T11:22:32.174Z,22.80
2019-05-16T11:25:16.384Z,22.80
2019-05-16T11:27:37.494Z,22.80
2019-05-16T11:30:08.220Z,22.70
2019-05-16T11:32:39.138Z,22.80
2019-05-16T11:35:09.938Z,22.70
2019-05-16T11:37:40.778Z,22.70
2019-05-16T11:40:11.645Z,22.70
2019-05-16T11:42:42.345Z,22.70
2019-05-16T11:45:13.030Z,22.70
2019-05-16T11:47:43.952Z,22.70
2019-05-16T11:50:17.324Z,22.70
2019-05-16T11:52:47.960Z,22.70
2019-05-16T11:55:18.924Z,22.70
2019-05-16T11:57:49.838Z,22.70
2019-05-16T12:00:20.867Z,22.70
2019-05-16T12:02:51.783Z,22.70
2019-05-16T12:05:22.456Z,22.80
2019-05-16T12:07:56.962Z,22.70
2019-05-16T12:10:27.086Z,22.80
2019-05-16T12:12:58.190Z,22.70
2019-05-16T12:15:28.873Z,22.70
2019-05-16T12:18:04.287Z,22.70
2019-05-16T12:20:32.100Z,22.70
2019-05-16T12:23:02.965Z,22.70
2019-05-16T12:25:33.671Z,22.70
2019-05-16T12:28:04.438Z,22.70
2019-05-16T12:30:40.129Z,22.80
2019-05-16T12:33:07.828Z,22.80
2019-05-16T12:35:38.531Z,22.80
2019-05-16T12:38:09.406Z,22.70
2019-05-16T12:40:40.350Z,22.80
2019-05-16T12:43:11.179Z,22.80
2019-05-16T12:45:42.007Z,22.80
2019-05-16T12:48:16.229Z,22.70
2019-05-16T12:50:48.073Z,22.70
2019-05-16T12:53:18.203Z,22.70
2019-05-16T12:55:49.349Z,22.70
2019-05-16T12:58:26.017Z,22.70
2019-05-16T13:00:56.693Z,22.70
2019-05-16T13:03:27.758Z,22.70
2019-05-16T13:05:57.856Z,22.70
2019-05-16T13:08:28.767Z,22.70
2019-05-16T13:11:02.975Z,22.70
2019-05-16T13:13:38.006Z,22.70
2019-05-16T13:16:10.140Z,22.70
2019-05-16T13:18:42.553Z,22.70
2019-05-16T13:21:13.992Z,22.70
2019-05-16T13:23:46.743Z,22.70
2019-05-16T13:26:17.905Z,22.80
2019-05-16T13:28:48.950Z,22.80
2019-05-16T13:31:19.949Z,22.80
2019-05-16T13:33:50.970Z,22.80
2019-05-16T13:36:21.990Z,22.80
2019-05-16T13:38:53.223Z,22.80
2019-05-16T13:41:26.832Z,22.80
2019-05-16T13:43:57.235Z,22.80
2019-05-16T13:46:37.190Z,22.80
2019-05-16T13:49:09.187Z,22.80
2019-05-16T13:51:41.534Z,22.80
2019-05-16T13:54:13.176Z,22.80
2019-05-16T13:56:44.107Z,22.80
2019-05-16T13:59:17.168Z,22.80
2019-05-16T14:01:48.824Z,22.80
2019-05-16T14:04:20.373Z,22.80
2019-05-16T14:06:55.480Z,22.80
2019-05-16T14:09:26.850Z,22.80
2019-05-16T14:11:58.371Z,22.80
2019-05-16T14:14:37.239Z,22.80
2019-05-16T14:17:02.973Z,22.80
2019-05-16T14:19:37.511Z,22.90
2019-05-16T14:22:10.379Z,23.10
2019-05-16T14:24:41.541Z,23.30
2019-05-16T14:27:12.460Z,23.40
2019-05-16T14:29:43.316Z,23.50
2019-05-16T14:32:13.932Z,23.60
2019-05-16T14:34:51.022Z,23.60
2019-05-16T14:37:20.630Z,23.60
2019-05-16T14:39:51.517Z,23.60
2019-05-16T14:42:23.339Z,23.70
2019-05-16T14:45:06.833Z,23.60
2019-05-16T14:47:27.934Z,23.60
2019-05-16T14:50:00.268Z,23.70
2019-05-16T14:52:33.248Z,23.70
2019-05-16T14:55:07.345Z,23.80
2019-05-16T14:57:38.710Z,23.80
2019-05-16T15:00:09.567Z,23.80
2019-05-16T15:02:40.599Z,23.80
2019-05-16T15:05:11.851Z,23.80
2019-05-16T15:07:42.852Z,23.80
2019-05-16T15:10:16.430Z,23.80
2019-05-16T15:12:46.928Z,23.70
2019-05-16T15:15:24.277Z,23.60
2019-05-16T15:17:53.443Z,23.60
2019-05-16T15:20:27.630Z,23.50
2019-05-16T15:22:56.825Z,23.50
2019-05-16T15:25:27.556Z,23.40
2019-05-16T15:28:04.202Z,23.40
2019-05-16T15:30:38.969Z,23.30
2019-05-16T15:33:08.660Z,23.30
2019-05-16T15:35:39.831Z,23.30
2019-05-16T15:38:10.797Z,23.20
2019-05-16T15:40:41.587Z,23.20
2019-05-16T15:43:12.362Z,23.20
2019-05-16T15:45:48.644Z,23.20
2019-05-16T15:48:17.204Z,23.20
2019-05-16T15:50:48.272Z,23.30
2019-05-16T15:53:20.096Z,23.30
2019-05-16T15:55:51.696Z,23.40
2019-05-16T15:58:23.295Z,23.40
2019-05-16T16:00:54.283Z,23.50
2019-05-16T16:03:27.208Z,23.50
2019-05-16T16:05:58.368Z,23.60
2019-05-16T16:08:29.823Z,23.60
2019-05-16T16:11:01.245Z,23.60
2019-05-16T16:13:32.233Z,23.70
2019-05-16T16:16:04.022Z,23.70
2019-05-16T16:18:37.676Z,23.70
2019-05-16T16:21:08.137Z,23.70
2019-05-16T16:23:40.010Z,23.70
2019-05-16T16:26:11.622Z,23.70
2019-05-16T16:28:43.597Z,23.60
2019-05-16T16:31:16.703Z,23.60
2019-05-16T16:33:47.361Z,23.60
2019-05-16T16:36:18.171Z,23.60
2019-05-16T16:38:49.300Z,23.50
2019-05-16T16:41:20.114Z,23.60
2019-05-16T16:43:51.065Z,23.60
2019-05-16T16:46:22.242Z,23.50
2019-05-16T16:48:53.083Z,23.50
2019-05-16T16:51:26.710Z,23.50
2019-05-16T16:53:57.003Z,23.50
2019-05-16T16:56:28.137Z,23.70
2019-05-16T16:58:58.777Z,23.80
2019-05-16T17:01:29.593Z,23.80
2019-05-16T17:04:00.339Z,23.90
2019-05-16T17:06:31.207Z,24.00
2019-05-16T17:09:02.111Z,24.10
2019-05-16T17:11:33.050Z,24.20
2019-05-16T17:14:03.875Z,24.20
2019-05-16T17:16:34.728Z,24.20
2019-05-16T17:19:07.634Z,24.30
2019-05-16T17:21:38.155Z,24.30
2019-05-16T17:24:09.750Z,24.30
2019-05-16T17:26:41.539Z,24.20
2019-05-16T17:29:12.503Z,24.10
2019-05-16T17:31:43.489Z,24.10
2019-05-16T17:34:16.218Z,24.00
2019-05-16T17:36:46.846Z,24.10
2019-05-16T17:39:18.380Z,24.10
2019-05-16T17:41:54.589Z,24.00
2019-05-16T17:44:21.895Z,24.00
2019-05-16T17:46:53.030Z,24.00
2019-05-16T17:49:26.521Z,23.90
2019-05-16T17:51:56.696Z,23.90
2019-05-16T17:54:27.452Z,23.80
2019-05-16T17:56:58.821Z,23.90
2019-05-16T17:59:29.497Z,23.90
2019-05-16T18:02:00.635Z,23.90
2019-05-16T18:04:31.503Z,23.90
2019-05-16T18:07:02.498Z,23.90
2019-05-16T18:09:33.252Z,23.90
2019-05-16T18:12:04.091Z,23.80
2019-05-16T18:14:37.112Z,23.80
2019-05-16T18:17:07.840Z,23.80
2019-05-16T18:19:38.867Z,23.90
2019-05-16T18:22:10.264Z,23.80
2019-05-16T18:24:41.037Z,23.90
2019-05-16T18:27:11.830Z,23.80
2019-05-16T18:29:42.696Z,23.80
2019-05-16T18:32:13.568Z,23.70
2019-05-16T18:34:44.489Z,23.70
2019-05-16T18:37:17.151Z,23.60
2019-05-16T18:39:47.573Z,23.70
2019-05-16T18:42:18.563Z,23.70
2019-05-16T18:44:49.299Z,23.60
2019-05-16T18:47:20.009Z,23.60
2019-05-16T18:49:50.773Z,23.60
2019-05-16T18:52:21.763Z,23.60
2019-05-16T18:54:52.748Z,23.60
2019-05-16T18:57:23.386Z,23.60
2019-05-16T18:59:56.702Z,23.60
2019-05-16T19:02:27.331Z,23.60
2019-05-16T19:04:57.981Z,23.50
2019-05-16T19:07:29.044Z,23.50
2019-05-16T19:10:00.062Z,23.50
2019-05-16T19:12:31.022Z,23.50
2019-05-16T19:15:02.421Z,23.50
2019-05-16T19:17:33.110Z,23.40
2019-05-16T19:20:06.466Z,23.40
2019-05-16T19:22:37.298Z,23.40
2019-05-16T19:25:08.623Z,23.40
2019-05-16T19:27:39.380Z,23.40
2019-05-16T19:30:09.999Z,23.40
2019-05-16T19:32:40.731Z,23.40
2019-05-16T19:35:11.563Z,23.40
2019-05-16T19:37:43.016Z,23.40
2019-05-16T19:40:13.967Z,23.40
2019-05-16T19:42:46.662Z,23.30
2019-05-16T19:45:18.903Z,23.40
2019-05-16T19:47:49.767Z,23.40
2019-05-16T19:50:20.998Z,23.40
2019-05-16T19:52:51.828Z,23.40
2019-05-16T19:55:22.749Z,23.40
2019-05-16T19:57:53.786Z,23.40
2019-05-16T20:00:26.615Z,23.40
2019-05-16T20:02:57.188Z,23.40
2019-05-16T20:05:27.951Z,23.40
2019-05-16T20:07:58.739Z,23.40
2019-05-16T20:10:29.654Z,23.40
2019-05-16T20:13:00.458Z,23.40
2019-05-16T20:15:31.146Z,23.40
2019-05-16T20:18:02.094Z,23.40
2019-05-16T20:20:33.068Z,23.40
2019-05-16T20:23:03.886Z,23.40
2019-05-16T20:25:36.491Z,23.40
2019-05-16T20:28:09.121Z,23.40
2019-05-16T20:30:40.240Z,23.30
2019-05-16T20:33:11.031Z,23.40
2019-05-16T20:35:42.585Z,23.30
2019-05-16T20:38:13.752Z,23.40
2019-05-16T20:40:46.622Z,23.40
2019-05-16T20:43:17.326Z,23.40
2019-05-16T20:45:48.233Z,23.30
2019-05-16T20:48:19.036Z,23.30
2019-05-16T20:50:50.130Z,23.30
2019-05-16T20:53:21.405Z,23.30
2019-05-16T20:55:52.627Z,23.30
2019-05-16T20:58:23.820Z,23.30
2019-05-16T21:00:59.618Z,23.30
2019-05-16T21:03:28.226Z,23.30
2019-05-16T21:06:00.113Z,23.30
2019-05-16T21:08:31.980Z,23.30
2019-05-16T21:11:03.342Z,23.30
2019-05-16T21:13:34.575Z,23.30
2019-05-16T21:16:09.175Z,23.30
2019-05-16T21:18:40.039Z,23.30
2019-05-16T21:21:11.058Z,23.30
2019-05-16T21:23:42.036Z,23.30
2019-05-16T21:26:13.396Z,23.30
2019-05-16T21:28:46.140Z,23.30
2019-05-16T21:31:19.457Z,23.30
2019-05-16T21:33:49.927Z,23.30
2019-05-16T21:36:20.974Z,23.30
2019-05-16T21:38:52.088Z,23.30
2019-05-16T21:41:23.316Z,23.30
2019-05-16T21:43:56.248Z,23.30
2019-05-16T21:46:28.158Z,23.30
2019-05-16T21:49:19.542Z,23.30
2019-05-16T21:51:51.014Z,23.30
2019-05-16T21:54:22.122Z,23.30
2019-05-16T21:56:52.659Z,23.30
2019-05-16T21:59:28.484Z,23.30
2019-05-16T22:01:58.722Z,23.30
2019-05-16T22:04:29.647Z,23.30
2019-05-16T22:07:01.365Z,23.30
2019-05-16T22:09:32.465Z,23.30
2019-05-16T22:12:03.575Z,23.20
2019-05-16T22:14:46.647Z,23.20
2019-05-16T22:17:18.080Z,23.20
2019-05-16T22:19:49.238Z,23.20
2019-05-16T22:22:20.163Z,23.20
2019-05-16T22:24:51.136Z,23.30
2019-05-16T22:27:22.454Z,23.30
2019-05-16T22:29:53.783Z,23.30
2019-05-16T22:32:27.037Z,23.30
2019-05-16T22:34:59.952Z,23.30
2019-05-16T22:37:30.439Z,23.30
2019-05-16T22:40:01.392Z,23.30
2019-05-16T22:42:32.176Z,23.20
2019-05-16T22:45:02.966Z,23.30
2019-05-16T22:47:33.686Z,23.30
2019-05-16T22:50:04.706Z,23.20
2019-05-16T22:52:36.775Z,23.30
2019-05-16T22:55:08.466Z,23.20
2019-05-16T22:57:39.421Z,23.20
2019-05-16T23:00:12.309Z,23.20
2019-05-16T23:02:43.634Z,23.20
2019-05-16T23:05:16.673Z,23.20
2019-05-16T23:07:51.273Z,23.20
2019-05-16T23:10:19.619Z,23.20
2019-05-16T23:12:50.493Z,23.20
2019-05-16T23:15:21.463Z,23.20
2019-05-16T23:17:52.445Z,23.20
2019-05-16T23:20:23.321Z,23.20
2019-05-16T23:22:56.205Z,23.20
2019-05-16T23:25:26.650Z,23.20
2019-05-16T23:27:57.349Z,23.20
2019-05-16T23:30:28.425Z,23.20
2019-05-16T23:32:59.264Z,23.20
2019-05-16T23:35:29.964Z,23.20
2019-05-16T23:38:00.786Z,23.20
2019-05-16T23:40:31.852Z,23.20
2019-05-16T23:43:02.799Z,23.20
2019-05-16T23:45:33.818Z,23.20
2019-05-16T23:48:09.518Z,23.20
2019-05-16T23:50:37.842Z,23.20
2019-05-16T23:53:08.934Z,23.20
2019-05-16T23:55:39.728Z,23.20
2019-05-16T23:58:10.516Z,23.20
